Airfield :
LOGIN :

Register | Disclaimer

   EN    FR    IT 

 










Legend :    VFR   Marginal VFR   IFR   Intensive IFR   Very Intensive IFR
Visi :
Ceiling :
>= 8 km
>= 3000ft
5 to 8 km
1000 to 3000 ft
1500m to 5 km
500 to 1000 ft
800 to 1500m
200 to 500 ft
< 800m
< 200 ft
Symbols :   Thunderstorms  Fog  Heavy snow  Heavy precipitations  Wind > 20 kt
SIGMETs :     Misc.  Thunderstorms  Icing  Turbulence  Mountain Waves  Volcanic Ashes






- Airport Elevation : 3 ft
- IATA code : DHR


EHKD - Den Helder De Kooy

CURRENT METAR :
  • 100925Z AUTO 18011KT 9999 FEW023 BKN029 BKN310 05/03 Q1021 BLU 19013KT 9999 FEW030 BKN300

EXPIRED METARs :
  • 100855Z AUTO 18009KT 9999 FEW031 OVC280 04/02 Q1021 BLU 19012KT 9999 FEW030 BKN300
  • 100825Z AUTO 17008KT 9999 SCT031 SCT036 OVC300 04/02 Q1021 BLU 19012KT 9999 FEW030 BKN300
  • 100755Z AUTO 22011KT 190V250 9999 OVC310 06/02 Q1021 BLU 19012KT 9999 FEW030 BKN300
  • 100725Z AUTO 20007KT 9999 BKN310 03/01 Q1021 BLU 19008KT 9999 SCT030 SCT045 BKN300
  • 100655Z AUTO 19007KT 9999 FEW026 BKN031 BKN038 05/03 Q1021 BLU 19008KT 9999 SCT030 SCT045 BKN300

TAF TAF EHKD
Valid from the 10 at 10:00 until the 10 at 22:00 UTC


100902Z 1010/1022 17010KT 9999 SCT035
BECMG 1010/1012 19016G26KT
BECMG 1012/1015 19020G35KT
PROB40
TEMPO 1016/1022 20022G40KT
PROB40 1021/1022 OVC018



MET'MAP, your aeronautical weather chart ! - Copyright ORBIFLY December 2007 - Disclaimer

ORBIFLY MET'MAP TEAM :

Programming & Development : Alexandra Zaïnal
Concept & original design : Baudouin d'Aumeries
Assistance for programming : Marc-Olivier Méhu
Technical & hardware support : Manuel Goepfert

Contact : metmap@orbifly.com




SOURCES & CREDITS :

   NOAA